sensor_id;sensor_type;location;lat;lon;timestamp;P1;durP1;ratioP1;P2;durP2;ratioP2
78508;SDS011;67802;50.846;7.958;2023-03-01T04:22:14;4.28;;;1.75;;
78508;SDS011;67802;50.846;7.958;2023-03-01T04:24:43;4.95;;;2.13;;
78508;SDS011;67802;50.846;7.958;2023-03-01T04:27:09;5.40;;;2.08;;
78508;SDS011;67802;50.846;7.958;2023-03-01T04:29:34;3.60;;;1.60;;
78508;SDS011;67802;50.846;7.958;2023-03-01T04:31:59;4.88;;;2.17;;
78508;SDS011;67802;50.846;7.958;2023-03-01T04:34:25;4.13;;;1.90;;
78508;SDS011;67802;50.846;7.958;2023-03-01T04:36:51;4.85;;;2.03;;
78508;SDS011;67802;50.846;7.958;2023-03-01T04:39:17;4.10;;;1.92;;
78508;SDS011;67802;50.846;7.958;2023-03-01T04:41:43;4.30;;;1.73;;
78508;SDS011;67802;50.846;7.958;2023-03-01T04:44:08;4.63;;;1.95;;
78508;SDS011;67802;50.846;7.958;2023-03-01T04:46:34;4.53;;;1.90;;
78508;SDS011;67802;50.846;7.958;2023-03-01T04:48:59;5.78;;;2.40;;
78508;SDS011;67802;50.846;7.958;2023-03-01T04:51:25;4.50;;;1.98;;
78508;SDS011;67802;50.846;7.958;2023-03-01T04:53:50;3.92;;;1.90;;
78508;SDS011;67802;50.846;7.958;2023-03-01T04:56:16;4.50;;;2.00;;
78508;SDS011;67802;50.846;7.958;2023-03-01T04:58:44;4.72;;;2.13;;
78508;SDS011;67802;50.846;7.958;2023-03-01T05:01:10;3.85;;;1.70;;
78508;SDS011;67802;50.846;7.958;2023-03-01T05:03:44;5.88;;;2.20;;
78508;SDS011;67802;50.846;7.958;2023-03-01T05:06:11;4.05;;;1.80;;
78508;SDS011;67802;50.846;7.958;2023-03-01T05:08:37;4.68;;;2.10;;
78508;SDS011;67802;50.846;7.958;2023-03-01T05:11:04;5.45;;;2.00;;
78508;SDS011;67802;50.846;7.958;2023-03-01T05:13:30;4.70;;;2.00;;
78508;SDS011;67802;50.846;7.958;2023-03-01T05:15:56;4.40;;;1.88;;
78508;SDS011;67802;50.846;7.958;2023-03-01T05:18:23;4.38;;;2.00;;
78508;SDS011;67802;50.846;7.958;2023-03-01T05:20:53;4.85;;;2.13;;
78508;SDS011;67802;50.846;7.958;2023-03-01T05:23:21;4.45;;;2.00;;
78508;SDS011;67802;50.846;7.958;2023-03-01T05:25:47;4.47;;;2.05;;
78508;SDS011;67802;50.846;7.958;2023-03-01T05:28:12;4.18;;;1.83;;
78508;SDS011;67802;50.846;7.958;2023-03-01T05:30:38;4.40;;;1.98;;
78508;SDS011;67802;50.846;7.958;2023-03-01T05:33:06;4.82;;;2.03;;
78508;SDS011;67802;50.846;7.958;2023-03-01T05:35:38;4.75;;;2.00;;
78508;SDS011;67802;50.846;7.958;2023-03-01T05:38:07;4.30;;;1.75;;
78508;SDS011;67802;50.846;7.958;2023-03-01T05:40:34;4.78;;;2.05;;
78508;SDS011;67802;50.846;7.958;2023-03-01T05:42:59;4.70;;;2.00;;
78508;SDS011;67802;50.846;7.958;2023-03-01T05:45:26;4.40;;;1.70;;
78508;SDS011;67802;50.846;7.958;2023-03-01T05:47:52;5.15;;;2.10;;
78508;SDS011;67802;50.846;7.958;2023-03-01T05:50:19;4.45;;;1.90;;
78508;SDS011;67802;50.846;7.958;2023-03-01T05:52:46;3.75;;;1.60;;
78508;SDS011;67802;50.846;7.958;2023-03-01T05:55:14;5.30;;;2.10;;
78508;SDS011;67802;50.846;7.958;2023-03-01T05:57:41;4.47;;;2.20;;
78508;SDS011;67802;50.846;7.958;2023-03-01T06:00:06;4.77;;;2.10;;
78508;SDS011;67802;50.846;7.958;2023-03-01T06:02:32;4.32;;;1.73;;
78508;SDS011;67802;50.846;7.958;2023-03-01T06:04:58;4.30;;;1.80;;
78508;SDS011;67802;50.846;7.958;2023-03-01T06:07:23;4.40;;;1.93;;
78508;SDS011;67802;50.846;7.958;2023-03-01T06:09:48;4.97;;;2.10;;
78508;SDS011;67802;50.846;7.958;2023-03-01T06:12:14;4.35;;;1.88;;
78508;SDS011;67802;50.846;7.958;2023-03-01T06:14:39;4.67;;;1.83;;
78508;SDS011;67802;50.846;7.958;2023-03-01T06:17:04;4.68;;;1.95;;
78508;SDS011;67802;50.846;7.958;2023-03-01T06:19:29;4.88;;;2.15;;
78508;SDS011;67802;50.846;7.958;2023-03-01T06:21:55;4.80;;;2.07;;
78508;SDS011;67802;50.846;7.958;2023-03-01T06:24:20;4.03;;;1.80;;
78508;SDS011;67802;50.846;7.958;2023-03-01T06:26:45;4.40;;;2.03;;
78508;SDS011;67802;50.846;7.958;2023-03-01T06:29:10;5.00;;;1.80;;
78508;SDS011;67802;50.846;7.958;2023-03-01T06:31:36;4.78;;;2.00;;
78508;SDS011;67802;50.846;7.958;2023-03-01T06:34:01;5.87;;;2.00;;
78508;SDS011;67802;50.846;7.958;2023-03-01T06:36:27;5.13;;;2.10;;
78508;SDS011;67802;50.846;7.958;2023-03-01T06:38:52;5.68;;;2.10;;
78508;SDS011;67802;50.846;7.958;2023-03-01T06:41:18;4.30;;;1.90;;
78508;SDS011;67802;50.846;7.958;2023-03-01T06:43:43;5.38;;;2.20;;
78508;SDS011;67802;50.846;7.958;2023-03-01T06:46:08;4.75;;;2.08;;
78508;SDS011;67802;50.846;7.958;2023-03-01T06:48:34;5.40;;;2.03;;
78508;SDS011;67802;50.846;7.958;2023-03-01T06:50:59;5.13;;;1.92;;
78508;SDS011;67802;50.846;7.958;2023-03-01T06:53:28;5.45;;;2.15;;
78508;SDS011;67802;50.846;7.958;2023-03-01T06:55:57;5.45;;;2.20;;
78508;SDS011;67802;50.846;7.958;2023-03-01T06:58:24;4.97;;;2.20;;
78508;SDS011;67802;50.846;7.958;2023-03-01T07:00:50;5.20;;;2.40;;
78508;SDS011;67802;50.846;7.958;2023-03-01T07:03:15;4.30;;;1.80;;
78508;SDS011;67802;50.846;7.958;2023-03-01T07:05:40;4.28;;;1.88;;
78508;SDS011;67802;50.846;7.958;2023-03-01T07:08:06;5.05;;;2.08;;
78508;SDS011;67802;50.846;7.958;2023-03-01T07:10:31;4.30;;;2.22;;
78508;SDS011;67802;50.846;7.958;2023-03-01T07:12:57;4.55;;;1.80;;
78508;SDS011;67802;50.846;7.958;2023-03-01T07:15:23;5.72;;;2.40;;
78508;SDS011;67802;50.846;7.958;2023-03-01T07:17:49;5.85;;;2.03;;
78508;SDS011;67802;50.846;7.958;2023-03-01T07:20:15;5.13;;;2.17;;
78508;SDS011;67802;50.846;7.958;2023-03-01T07:22:41;4.45;;;2.05;;
78508;SDS011;67802;50.846;7.958;2023-03-01T07:25:07;5.80;;;2.25;;
78508;SDS011;67802;50.846;7.958;2023-03-01T07:27:33;5.03;;;1.98;;
78508;SDS011;67802;50.846;7.958;2023-03-01T07:29:58;4.93;;;1.98;;
78508;SDS011;67802;50.846;7.958;2023-03-01T07:32:24;5.03;;;2.20;;
78508;SDS011;67802;50.846;7.958;2023-03-01T07:34:50;4.40;;;1.88;;
78508;SDS011;67802;50.846;7.958;2023-03-01T07:37:16;4.47;;;1.80;;
78508;SDS011;67802;50.846;7.958;2023-03-01T07:39:41;4.95;;;2.13;;
78508;SDS011;67802;50.846;7.958;2023-03-01T07:42:07;4.63;;;2.10;;
78508;SDS011;67802;50.846;7.958;2023-03-01T07:44:33;4.30;;;1.90;;
78508;SDS011;67802;50.846;7.958;2023-03-01T07:46:59;4.60;;;1.90;;
78508;SDS011;67802;50.846;7.958;2023-03-01T07:49:25;4.65;;;2.05;;
78508;SDS011;67802;50.846;7.958;2023-03-01T07:51:51;3.83;;;1.75;;
78508;SDS011;67802;50.846;7.958;2023-03-01T07:54:17;4.22;;;2.10;;
78508;SDS011;67802;50.846;7.958;2023-03-01T07:56:43;4.32;;;1.88;;
78508;SDS011;67802;50.846;7.958;2023-03-01T07:59:08;4.80;;;2.05;;
78508;SDS011;67802;50.846;7.958;2023-03-01T08:01:34;5.03;;;2.20;;
78508;SDS011;67802;50.846;7.958;2023-03-01T08:03:59;5.45;;;2.13;;
78508;SDS011;67802;50.846;7.958;2023-03-01T08:06:25;4.13;;;1.93;;
78508;SDS011;67802;50.846;7.958;2023-03-01T08:08:50;5.47;;;2.40;;
78508;SDS011;67802;50.846;7.958;2023-03-01T08:11:15;5.65;;;2.20;;
78508;SDS011;67802;50.846;7.958;2023-03-01T08:13:42;4.32;;;2.03;;
78508;SDS011;67802;50.846;7.958;2023-03-01T08:16:12;4.65;;;2.17;;
78508;SDS011;67802;50.846;7.958;2023-03-01T08:18:38;4.93;;;2.30;;
78508;SDS011;67802;50.846;7.958;2023-03-01T08:21:04;6.45;;;2.53;;
78508;SDS011;67802;50.846;7.958;2023-03-01T08:23:34;5.03;;;2.40;;
78508;SDS011;67802;50.846;7.958;2023-03-01T08:26:14;7.25;;;3.67;;
78508;SDS011;67802;50.846;7.958;2023-03-01T08:28:44;8.32;;;4.35;;
78508;SDS011;67802;50.846;7.958;2023-03-01T08:31:24;11.75;;;5.63;;
78508;SDS011;67802;50.846;7.958;2023-03-01T08:33:53;9.60;;;5.70;;
78508;SDS011;67802;50.846;7.958;2023-03-01T08:36:23;11.63;;;5.57;;
78508;SDS011;67802;50.846;7.958;2023-03-01T08:38:49;10.52;;;5.95;;
78508;SDS011;67802;50.846;7.958;2023-03-01T08:41:15;13.00;;;6.45;;
78508;SDS011;67802;50.846;7.958;2023-03-01T08:43:41;11.93;;;6.13;;
78508;SDS011;67802;50.846;7.958;2023-03-01T08:46:06;10.95;;;5.72;;
78508;SDS011;67802;50.846;7.958;2023-03-01T08:48:32;11.13;;;5.63;;
78508;SDS011;67802;50.846;7.958;2023-03-01T08:50:59;12.60;;;6.30;;
78508;SDS011;67802;50.846;7.958;2023-03-01T08:53:32;11.63;;;5.68;;
78508;SDS011;67802;50.846;7.958;2023-03-01T08:55:59;9.90;;;5.17;;
78508;SDS011;67802;50.846;7.958;2023-03-01T08:58:25;11.00;;;4.97;;
78508;SDS011;67802;50.846;7.958;2023-03-01T09:00:51;10.90;;;5.63;;
78508;SDS011;67802;50.846;7.958;2023-03-01T09:03:16;11.23;;;5.23;;
78508;SDS011;67802;50.846;7.958;2023-03-01T09:05:41;9.60;;;5.20;;
78508;SDS011;67802;50.846;7.958;2023-03-01T09:08:07;11.73;;;4.97;;
78508;SDS011;67802;50.846;7.958;2023-03-01T09:10:33;9.88;;;4.90;;
78508;SDS011;67802;50.846;7.958;2023-03-01T09:13:02;9.82;;;5.03;;
78508;SDS011;67802;50.846;7.958;2023-03-01T09:15:27;8.77;;;4.18;;
78508;SDS011;67802;50.846;7.958;2023-03-01T09:17:53;7.20;;;3.90;;
78508;SDS011;67802;50.846;7.958;2023-03-01T09:20:18;8.17;;;4.30;;
78508;SDS011;67802;50.846;7.958;2023-03-01T09:22:43;7.05;;;3.67;;
78508;SDS011;67802;50.846;7.958;2023-03-01T09:25:09;9.07;;;3.88;;
78508;SDS011;67802;50.846;7.958;2023-03-01T09:27:34;6.85;;;3.78;;
78508;SDS011;67802;50.846;7.958;2023-03-01T09:30:00;7.97;;;4.10;;
78508;SDS011;67802;50.846;7.958;2023-03-01T09:32:25;8.18;;;3.60;;
78508;SDS011;67802;50.846;7.958;2023-03-01T09:34:50;7.90;;;3.75;;
78508;SDS011;67802;50.846;7.958;2023-03-01T09:37:32;7.47;;;3.65;;
78508;SDS011;67802;50.846;7.958;2023-03-01T09:39:58;7.85;;;3.58;;
78508;SDS011;67802;50.846;7.958;2023-03-01T09:42:23;7.22;;;3.28;;
78508;SDS011;67802;50.846;7.958;2023-03-01T09:44:51;7.35;;;3.30;;
78508;SDS011;67802;50.846;7.958;2023-03-01T09:47:21;6.82;;;3.20;;
78508;SDS011;67802;50.846;7.958;2023-03-01T09:50:01;5.75;;;2.97;;
78508;SDS011;67802;50.846;7.958;2023-03-01T09:53:07;5.95;;;3.20;;
78508;SDS011;67802;50.846;7.958;2023-03-01T10:00:51;19.00;;;3.33;;
78508;SDS011;67802;50.846;7.958;2023-03-01T10:03:39;8.73;;;3.05;;
78508;SDS011;67802;50.846;7.958;2023-03-01T10:06:20;8.23;;;3.08;;
78508;SDS011;67802;50.846;7.958;2023-03-01T10:08:58;7.80;;;3.55;;
78508;SDS011;67802;50.846;7.958;2023-03-01T10:11:31;7.28;;;3.55;;
78508;SDS011;67802;50.846;7.958;2023-03-01T10:16:51;7.00;;;3.10;;
78508;SDS011;67802;50.846;7.958;2023-03-01T10:19:24;5.82;;;2.88;;
78508;SDS011;67802;50.846;7.958;2023-03-01T10:21:57;6.00;;;3.03;;
78508;SDS011;67802;50.846;7.958;2023-03-01T10:24:26;6.57;;;3.10;;
78508;SDS011;67802;50.846;7.958;2023-03-01T10:26:57;5.68;;;3.17;;
78508;SDS011;67802;50.846;7.958;2023-03-01T10:29:41;6.00;;;2.80;;
78508;SDS011;67802;50.846;7.958;2023-03-01T10:32:23;7.10;;;3.20;;
78508;SDS011;67802;50.846;7.958;2023-03-01T10:34:49;7.35;;;3.10;;
78508;SDS011;67802;50.846;7.958;2023-03-01T10:37:18;6.05;;;2.92;;
78508;SDS011;67802;50.846;7.958;2023-03-01T10:42:35;5.75;;;2.45;;
78508;SDS011;67802;50.846;7.958;2023-03-01T10:45:14;5.25;;;2.45;;
78508;SDS011;67802;50.846;7.958;2023-03-01T10:50:42;7.90;;;2.78;;
78508;SDS011;67802;50.846;7.958;2023-03-01T10:53:20;5.88;;;2.80;;
78508;SDS011;67802;50.846;7.958;2023-03-01T10:55:59;6.85;;;2.72;;
78508;SDS011;67802;50.846;7.958;2023-03-01T10:58:30;5.25;;;2.47;;
78508;SDS011;67802;50.846;7.958;2023-03-01T11:01:24;6.60;;;2.80;;
78508;SDS011;67802;50.846;7.958;2023-03-01T11:06:39;6.18;;;3.05;;
78508;SDS011;67802;50.846;7.958;2023-03-01T11:09:19;7.20;;;2.88;;
78508;SDS011;67802;50.846;7.958;2023-03-01T11:11:46;6.28;;;2.80;;
78508;SDS011;67802;50.846;7.958;2023-03-01T11:14:20;6.28;;;3.00;;
78508;SDS011;67802;50.846;7.958;2023-03-01T11:22:37;5.85;;;2.90;;
78508;SDS011;67802;50.846;7.958;2023-03-01T11:25:30;7.95;;;2.95;;
78508;SDS011;67802;50.846;7.958;2023-03-01T11:27:59;6.43;;;3.10;;
78508;SDS011;67802;50.846;7.958;2023-03-01T11:30:29;6.28;;;2.88;;
78508;SDS011;67802;50.846;7.958;2023-03-01T11:35:32;5.70;;;2.90;;
78508;SDS011;67802;50.846;7.958;2023-03-01T11:41:06;6.22;;;2.60;;
78508;SDS011;67802;50.846;7.958;2023-03-01T11:54:44;6.95;;;2.75;;
78508;SDS011;67802;50.846;7.958;2023-03-01T12:09:31;5.80;;;2.78;;
78508;SDS011;67802;50.846;7.958;2023-03-01T12:25:21;5.30;;;2.80;;
78508;SDS011;67802;50.846;7.958;2023-03-01T12:30:39;7.05;;;2.80;;
78508;SDS011;67802;50.846;7.958;2023-03-01T12:33:25;6.18;;;2.92;;
78508;SDS011;67802;50.846;7.958;2023-03-01T12:36:24;5.60;;;2.88;;
78508;SDS011;67802;50.846;7.958;2023-03-01T12:44:46;5.72;;;2.67;;
78508;SDS011;67802;50.846;7.958;2023-03-01T12:50:23;5.35;;;2.72;;
78508;SDS011;67802;50.846;7.958;2023-03-01T12:52:57;5.55;;;2.72;;
78508;SDS011;67802;50.846;7.958;2023-03-01T12:55:38;6.05;;;2.92;;
78508;SDS011;67802;50.846;7.958;2023-03-01T13:20:30;5.72;;;2.83;;
78508;SDS011;67802;50.846;7.958;2023-03-01T13:23:00;5.68;;;2.58;;
78508;SDS011;67802;50.846;7.958;2023-03-01T13:25:45;6.55;;;2.97;;
78508;SDS011;67802;50.846;7.958;2023-03-01T13:31:05;5.82;;;2.97;;
78508;SDS011;67802;50.846;7.958;2023-03-01T13:33:42;5.78;;;2.95;;
78508;SDS011;67802;50.846;7.958;2023-03-01T13:36:45;5.50;;;2.80;;
78508;SDS011;67802;50.846;7.958;2023-03-01T13:39:01;7.10;;;2.97;;
78508;SDS011;67802;50.846;7.958;2023-03-01T13:41:52;6.43;;;3.00;;
78508;SDS011;67802;50.846;7.958;2023-03-01T13:44:30;5.47;;;2.60;;
78508;SDS011;67802;50.846;7.958;2023-03-01T13:46:59;6.72;;;3.15;;
78508;SDS011;67802;50.846;7.958;2023-03-01T13:49:41;5.70;;;2.80;;
78508;SDS011;67802;50.846;7.958;2023-03-01T13:54:55;7.78;;;2.70;;
78508;SDS011;67802;50.846;7.958;2023-03-01T13:57:22;5.40;;;2.72;;
78508;SDS011;67802;50.846;7.958;2023-03-01T13:59:53;5.85;;;2.67;;
78508;SDS011;67802;50.846;7.958;2023-03-01T14:02:19;5.95;;;2.72;;
78508;SDS011;67802;50.846;7.958;2023-03-01T14:04:44;6.93;;;3.17;;
78508;SDS011;67802;50.846;7.958;2023-03-01T14:07:22;5.50;;;2.85;;
78508;SDS011;67802;50.846;7.958;2023-03-01T14:09:54;6.22;;;3.20;;
78508;SDS011;67802;50.846;7.958;2023-03-01T14:15:08;5.43;;;2.65;;
78508;SDS011;67802;50.846;7.958;2023-03-01T14:17:59;5.35;;;2.60;;
78508;SDS011;67802;50.846;7.958;2023-03-01T14:20:37;5.43;;;2.55;;
78508;SDS011;67802;50.846;7.958;2023-03-01T14:23:10;5.35;;;2.90;;
78508;SDS011;67802;50.846;7.958;2023-03-01T14:25:39;5.30;;;2.67;;
78508;SDS011;67802;50.846;7.958;2023-03-01T14:33:20;5.63;;;3.03;;
78508;SDS011;67802;50.846;7.958;2023-03-01T14:36:02;5.22;;;2.85;;
78508;SDS011;67802;50.846;7.958;2023-03-01T14:41:02;5.88;;;2.97;;
78508;SDS011;67802;50.846;7.958;2023-03-01T14:43:31;5.50;;;2.80;;
78508;SDS011;67802;50.846;7.958;2023-03-01T14:45:56;6.15;;;2.97;;
78508;SDS011;67802;50.846;7.958;2023-03-01T14:48:22;5.40;;;3.00;;
78508;SDS011;67802;50.846;7.958;2023-03-01T14:50:48;6.18;;;3.08;;
78508;SDS011;67802;50.846;7.958;2023-03-01T14:53:25;5.88;;;2.88;;
78508;SDS011;67802;50.846;7.958;2023-03-01T14:55:58;5.25;;;2.90;;
78508;SDS011;67802;50.846;7.958;2023-03-01T14:58:29;6.60;;;2.97;;
78508;SDS011;67802;50.846;7.958;2023-03-01T15:00:58;5.50;;;2.95;;
78508;SDS011;67802;50.846;7.958;2023-03-01T15:03:36;7.18;;;3.15;;
78508;SDS011;67802;50.846;7.958;2023-03-01T15:06:05;6.55;;;2.70;;
78508;SDS011;67802;50.846;7.958;2023-03-01T15:08:32;6.30;;;3.42;;
78508;SDS011;67802;50.846;7.958;2023-03-01T15:11:44;5.53;;;2.80;;
78508;SDS011;67802;50.846;7.958;2023-03-01T15:13:49;5.07;;;2.83;;
78508;SDS011;67802;50.846;7.958;2023-03-01T15:16:16;6.25;;;3.42;;
78508;SDS011;67802;50.846;7.958;2023-03-01T15:18:54;6.22;;;3.08;;
78508;SDS011;67802;50.846;7.958;2023-03-01T15:21:32;5.13;;;2.70;;
78508;SDS011;67802;50.846;7.958;2023-03-01T15:24:13;6.65;;;3.70;;
78508;SDS011;67802;50.846;7.958;2023-03-01T15:29:23;6.00;;;3.28;;
78508;SDS011;67802;50.846;7.958;2023-03-01T15:32:04;5.28;;;2.83;;
78508;SDS011;67802;50.846;7.958;2023-03-01T15:34:50;5.75;;;3.10;;
78508;SDS011;67802;50.846;7.958;2023-03-01T15:40:23;5.95;;;3.53;;
78508;SDS011;67802;50.846;7.958;2023-03-01T15:42:57;5.63;;;3.10;;
78508;SDS011;67802;50.846;7.958;2023-03-01T15:45:26;6.20;;;3.40;;
78508;SDS011;67802;50.846;7.958;2023-03-01T15:47:56;5.85;;;3.40;;
78508;SDS011;67802;50.846;7.958;2023-03-01T15:50:24;5.95;;;3.13;;
78508;SDS011;67802;50.846;7.958;2023-03-01T15:52:52;6.45;;;3.58;;
78508;SDS011;67802;50.846;7.958;2023-03-01T15:55:20;6.03;;;3.30;;
78508;SDS011;67802;50.846;7.958;2023-03-01T15:57:48;6.55;;;3.45;;
78508;SDS011;67802;50.846;7.958;2023-03-01T16:00:15;6.13;;;3.33;;
78508;SDS011;67802;50.846;7.958;2023-03-01T16:02:42;6.97;;;3.20;;
78508;SDS011;67802;50.846;7.958;2023-03-01T16:05:26;6.40;;;3.30;;
78508;SDS011;67802;50.846;7.958;2023-03-01T16:10:17;7.50;;;3.33;;
78508;SDS011;67802;50.846;7.958;2023-03-01T16:12:43;6.88;;;3.40;;
78508;SDS011;67802;50.846;7.958;2023-03-01T16:15:12;6.25;;;3.13;;
78508;SDS011;67802;50.846;7.958;2023-03-01T16:17:41;6.95;;;3.53;;
78508;SDS011;67802;50.846;7.958;2023-03-01T16:20:07;5.63;;;3.03;;
78508;SDS011;67802;50.846;7.958;2023-03-01T16:22:33;6.40;;;3.28;;
78508;SDS011;67802;50.846;7.958;2023-03-01T16:24:58;6.67;;;3.70;;
78508;SDS011;67802;50.846;7.958;2023-03-01T16:27:23;6.00;;;3.13;;
78508;SDS011;67802;50.846;7.958;2023-03-01T16:29:49;5.57;;;3.25;;
78508;SDS011;67802;50.846;7.958;2023-03-01T16:32:14;6.95;;;3.90;;
78508;SDS011;67802;50.846;7.958;2023-03-01T16:34:40;6.20;;;3.30;;
78508;SDS011;67802;50.846;7.958;2023-03-01T16:37:05;7.77;;;3.87;;
78508;SDS011;67802;50.846;7.958;2023-03-01T16:39:30;8.02;;;3.70;;
78508;SDS011;67802;50.846;7.958;2023-03-01T16:41:56;6.43;;;3.40;;
78508;SDS011;67802;50.846;7.958;2023-03-01T16:44:21;7.15;;;3.88;;
78508;SDS011;67802;50.846;7.958;2023-03-01T16:46:46;7.20;;;3.50;;
78508;SDS011;67802;50.846;7.958;2023-03-01T16:49:11;6.67;;;3.30;;
78508;SDS011;67802;50.846;7.958;2023-03-01T16:51:37;6.28;;;3.75;;
78508;SDS011;67802;50.846;7.958;2023-03-01T16:54:02;7.60;;;4.10;;
78508;SDS011;67802;50.846;7.958;2023-03-01T16:56:29;7.68;;;3.90;;
78508;SDS011;67802;50.846;7.958;2023-03-01T16:58:56;6.57;;;3.88;;
78508;SDS011;67802;50.846;7.958;2023-03-01T17:01:21;6.53;;;3.95;;
78508;SDS011;67802;50.846;7.958;2023-03-01T17:03:49;6.82;;;3.78;;
78508;SDS011;67802;50.846;7.958;2023-03-01T17:06:16;7.82;;;4.00;;
78508;SDS011;67802;50.846;7.958;2023-03-01T17:08:45;6.43;;;3.45;;
78508;SDS011;67802;50.846;7.958;2023-03-01T17:11:14;7.55;;;4.22;;
78508;SDS011;67802;50.846;7.958;2023-03-01T17:13:42;6.68;;;3.72;;
78508;SDS011;67802;50.846;7.958;2023-03-01T17:16:09;7.00;;;3.85;;
78508;SDS011;67802;50.846;7.958;2023-03-01T17:18:37;7.07;;;3.65;;
78508;SDS011;67802;50.846;7.958;2023-03-01T17:21:02;7.00;;;3.83;;
78508;SDS011;67802;50.846;7.958;2023-03-01T17:23:29;7.30;;;3.65;;
78508;SDS011;67802;50.846;7.958;2023-03-01T17:25:55;6.70;;;3.60;;
78508;SDS011;67802;50.846;7.958;2023-03-01T17:28:22;7.25;;;3.67;;
78508;SDS011;67802;50.846;7.958;2023-03-01T17:30:49;6.88;;;3.75;;
78508;SDS011;67802;50.846;7.958;2023-03-01T17:33:15;6.50;;;3.63;;
78508;SDS011;67802;50.846;7.958;2023-03-01T17:35:41;6.70;;;3.60;;
78508;SDS011;67802;50.846;7.958;2023-03-01T17:38:06;6.97;;;3.60;;
78508;SDS011;67802;50.846;7.958;2023-03-01T17:40:31;7.10;;;3.80;;
78508;SDS011;67802;50.846;7.958;2023-03-01T17:42:59;7.15;;;3.90;;
78508;SDS011;67802;50.846;7.958;2023-03-01T17:45:25;6.95;;;3.85;;
78508;SDS011;67802;50.846;7.958;2023-03-01T17:47:50;8.20;;;4.13;;
78508;SDS011;67802;50.846;7.958;2023-03-01T17:50:16;6.05;;;3.38;;
78508;SDS011;67802;50.846;7.958;2023-03-01T17:52:41;6.72;;;3.42;;
78508;SDS011;67802;50.846;7.958;2023-03-01T17:55:07;6.60;;;3.53;;
78508;SDS011;67802;50.846;7.958;2023-03-01T17:57:33;6.97;;;3.83;;
78508;SDS011;67802;50.846;7.958;2023-03-01T17:59:58;6.22;;;3.80;;
78508;SDS011;67802;50.846;7.958;2023-03-01T18:02:24;5.93;;;3.40;;
78508;SDS011;67802;50.846;7.958;2023-03-01T18:04:50;7.60;;;3.72;;
78508;SDS011;67802;50.846;7.958;2023-03-01T18:07:16;5.65;;;3.22;;
78508;SDS011;67802;50.846;7.958;2023-03-01T18:09:41;6.07;;;3.35;;
78508;SDS011;67802;50.846;7.958;2023-03-01T18:12:07;6.80;;;3.83;;
78508;SDS011;67802;50.846;7.958;2023-03-01T18:14:32;7.15;;;3.55;;
78508;SDS011;67802;50.846;7.958;2023-03-01T18:16:58;8.30;;;4.00;;
78508;SDS011;67802;50.846;7.958;2023-03-01T18:19:26;6.22;;;3.50;;
78508;SDS011;67802;50.846;7.958;2023-03-01T18:21:52;7.15;;;3.40;;
78508;SDS011;67802;50.846;7.958;2023-03-01T18:24:18;5.22;;;3.10;;
78508;SDS011;67802;50.846;7.958;2023-03-01T18:26:43;5.97;;;3.47;;
78508;SDS011;67802;50.846;7.958;2023-03-01T18:29:08;6.20;;;3.38;;
78508;SDS011;67802;50.846;7.958;2023-03-01T18:31:34;6.32;;;3.47;;
78508;SDS011;67802;50.846;7.958;2023-03-01T18:33:59;6.40;;;3.53;;
78508;SDS011;67802;50.846;7.958;2023-03-01T18:36:27;6.68;;;3.35;;
78508;SDS011;67802;50.846;7.958;2023-03-01T18:38:53;6.30;;;3.38;;
78508;SDS011;67802;50.846;7.958;2023-03-01T18:41:20;5.93;;;3.17;;
78508;SDS011;67802;50.846;7.958;2023-03-01T18:43:45;7.10;;;3.42;;
78508;SDS011;67802;50.846;7.958;2023-03-01T18:46:10;5.78;;;3.03;;
78508;SDS011;67802;50.846;7.958;2023-03-01T18:48:36;6.77;;;3.23;;
78508;SDS011;67802;50.846;7.958;2023-03-01T18:51:08;6.22;;;3.30;;
78508;SDS011;67802;50.846;7.958;2023-03-01T18:53:36;6.57;;;3.40;;
78508;SDS011;67802;50.846;7.958;2023-03-01T18:56:01;6.37;;;3.60;;
78508;SDS011;67802;50.846;7.958;2023-03-01T18:58:27;7.63;;;3.40;;
78508;SDS011;67802;50.846;7.958;2023-03-01T19:00:52;6.22;;;2.97;;
78508;SDS011;67802;50.846;7.958;2023-03-01T19:03:18;6.33;;;3.13;;
78508;SDS011;67802;50.846;7.958;2023-03-01T19:05:43;6.00;;;3.30;;
78508;SDS011;67802;50.846;7.958;2023-03-01T19:08:10;7.55;;;3.20;;
78508;SDS011;67802;50.846;7.958;2023-03-01T19:10:35;6.05;;;2.70;;
78508;SDS011;67802;50.846;7.958;2023-03-01T19:13:00;5.63;;;3.07;;
78508;SDS011;67802;50.846;7.958;2023-03-01T19:15:26;6.40;;;3.57;;
78508;SDS011;67802;50.846;7.958;2023-03-01T19:17:51;6.43;;;3.13;;
78508;SDS011;67802;50.846;7.958;2023-03-01T19:20:16;7.43;;;3.43;;
78508;SDS011;67802;50.846;7.958;2023-03-01T19:22:41;6.57;;;3.60;;
78508;SDS011;67802;50.846;7.958;2023-03-01T19:25:07;6.67;;;3.37;;
78508;SDS011;67802;50.846;7.958;2023-03-01T19:27:32;6.10;;;3.25;;
78508;SDS011;67802;50.846;7.958;2023-03-01T19:29:59;5.60;;;3.00;;
78508;SDS011;67802;50.846;7.958;2023-03-01T19:32:24;6.15;;;3.13;;
78508;SDS011;67802;50.846;7.958;2023-03-01T19:34:50;6.33;;;3.17;;
78508;SDS011;67802;50.846;7.958;2023-03-01T19:37:15;6.10;;;3.27;;
78508;SDS011;67802;50.846;7.958;2023-03-01T19:39:40;7.65;;;3.22;;
78508;SDS011;67802;50.846;7.958;2023-03-01T19:42:08;6.53;;;3.35;;
78508;SDS011;67802;50.846;7.958;2023-03-01T19:44:34;6.93;;;3.50;;
78508;SDS011;67802;50.846;7.958;2023-03-01T19:47:00;7.13;;;3.47;;
78508;SDS011;67802;50.846;7.958;2023-03-01T19:49:25;7.57;;;4.28;;
78508;SDS011;67802;50.846;7.958;2023-03-01T19:51:51;7.18;;;3.90;;
78508;SDS011;67802;50.846;7.958;2023-03-01T19:54:16;6.50;;;3.53;;
78508;SDS011;67802;50.846;7.958;2023-03-01T19:56:44;7.40;;;4.03;;
78508;SDS011;67802;50.846;7.958;2023-03-01T19:59:11;9.32;;;3.33;;
78508;SDS011;67802;50.846;7.958;2023-03-01T20:01:37;6.65;;;3.30;;
78508;SDS011;67802;50.846;7.958;2023-03-01T20:04:06;7.15;;;4.32;;
78508;SDS011;67802;50.846;7.958;2023-03-01T20:06:33;7.28;;;3.88;;
78508;SDS011;67802;50.846;7.958;2023-03-01T20:09:00;7.93;;;4.05;;
78508;SDS011;67802;50.846;7.958;2023-03-01T20:11:26;6.80;;;3.60;;
78508;SDS011;67802;50.846;7.958;2023-03-01T20:13:51;8.57;;;4.10;;
78508;SDS011;67802;50.846;7.958;2023-03-01T20:16:17;6.88;;;3.90;;
78508;SDS011;67802;50.846;7.958;2023-03-01T20:18:44;8.48;;;4.20;;
78508;SDS011;67802;50.846;7.958;2023-03-01T20:21:09;7.38;;;3.85;;
78508;SDS011;67802;50.846;7.958;2023-03-01T20:23:35;7.05;;;3.60;;
78508;SDS011;67802;50.846;7.958;2023-03-01T20:26:10;7.43;;;3.95;;
78508;SDS011;67802;50.846;7.958;2023-03-01T20:28:43;6.85;;;3.55;;
78508;SDS011;67802;50.846;7.958;2023-03-01T20:31:09;7.38;;;3.55;;
78508;SDS011;67802;50.846;7.958;2023-03-01T20:33:36;6.97;;;3.60;;
78508;SDS011;67802;50.846;7.958;2023-03-01T20:36:01;6.63;;;3.40;;
78508;SDS011;67802;50.846;7.958;2023-03-01T20:38:28;6.20;;;3.17;;
78508;SDS011;67802;50.846;7.958;2023-03-01T20:41:00;5.97;;;3.38;;
78508;SDS011;67802;50.846;7.958;2023-03-01T20:43:26;6.35;;;3.15;;
78508;SDS011;67802;50.846;7.958;2023-03-01T20:45:52;5.85;;;3.08;;
78508;SDS011;67802;50.846;7.958;2023-03-01T20:48:17;6.70;;;3.22;;
78508;SDS011;67802;50.846;7.958;2023-03-01T20:50:43;5.97;;;3.50;;
78508;SDS011;67802;50.846;7.958;2023-03-01T20:53:08;7.40;;;3.90;;
78508;SDS011;67802;50.846;7.958;2023-03-01T20:55:33;6.78;;;3.28;;
78508;SDS011;67802;50.846;7.958;2023-03-01T20:57:59;7.67;;;3.80;;
78508;SDS011;67802;50.846;7.958;2023-03-01T21:00:24;6.93;;;3.30;;
78508;SDS011;67802;50.846;7.958;2023-03-01T21:02:50;7.20;;;3.72;;
78508;SDS011;67802;50.846;7.958;2023-03-01T21:05:15;7.70;;;3.67;;
78508;SDS011;67802;50.846;7.958;2023-03-01T21:07:40;7.13;;;3.13;;
78508;SDS011;67802;50.846;7.958;2023-03-01T21:10:07;6.38;;;3.15;;
78508;SDS011;67802;50.846;7.958;2023-03-01T21:12:33;6.85;;;3.63;;
78508;SDS011;67802;50.846;7.958;2023-03-01T21:14:58;6.57;;;2.85;;
78508;SDS011;67802;50.846;7.958;2023-03-01T21:17:24;7.47;;;2.92;;
78508;SDS011;67802;50.846;7.958;2023-03-01T21:19:49;6.25;;;3.20;;